sensor_id;sensor_type;location;lat;lon;timestamp;temperature;humidity
75010;DHT22;63564;46.840;18.336;2022-12-07T00:01:40;1.70;98.09
75010;DHT22;63564;46.840;18.336;2022-12-07T00:04:41;1.67;98.26
75010;DHT22;63564;46.840;18.336;2022-12-07T00:07:41;1.70;98.65
75010;DHT22;63564;46.840;18.336;2022-12-07T00:10:41;1.64;98.58
75010;DHT22;63564;46.840;18.336;2022-12-07T00:13:43;1.64;97.87
75010;DHT22;63564;46.840;18.336;2022-12-07T00:16:44;1.63;97.52
75010;DHT22;63564;46.840;18.336;2022-12-07T00:19:45;1.67;95.96
75010;DHT22;63564;46.840;18.336;2022-12-07T00:22:45;1.60;95.85
75010;DHT22;63564;46.840;18.336;2022-12-07T00:25:45;1.51;96.71
75010;DHT22;63564;46.840;18.336;2022-12-07T00:28:50;1.46;96.97
75010;DHT22;63564;46.840;18.336;2022-12-07T00:31:51;1.54;97.65
75010;DHT22;63564;46.840;18.336;2022-12-07T00:34:51;1.51;98.09
75010;DHT22;63564;46.840;18.336;2022-12-07T00:37:51;1.23;97.55
75010;DHT22;63564;46.840;18.336;2022-12-07T00:40:56;0.98;97.45
75010;DHT22;63564;46.840;18.336;2022-12-07T00:43:58;0.89;96.65
75010;DHT22;63564;46.840;18.336;2022-12-07T00:46:58;0.70;97.01
75010;DHT22;63564;46.840;18.336;2022-12-07T00:49:59;0.64;97.40
75010;DHT22;63564;46.840;18.336;2022-12-07T00:53:00;0.44;97.45
75010;DHT22;63564;46.840;18.336;2022-12-07T00:56:27;0.35;97.03
75010;DHT22;63564;46.840;18.336;2022-12-07T00:59:27;0.27;97.47
75010;DHT22;63564;46.840;18.336;2022-12-07T01:02:28;0.09;98.21
75010;DHT22;63564;46.840;18.336;2022-12-07T01:05:28;0.20;98.15
75010;DHT22;63564;46.840;18.336;2022-12-07T01:08:29;0.18;97.74
75010;DHT22;63564;46.840;18.336;2022-12-07T01:11:30;-0.01;98.37
75010;DHT22;63564;46.840;18.336;2022-12-07T01:14:30;0.15;98.46
75010;DHT22;63564;46.840;18.336;2022-12-07T01:17:31;0.29;98.69
75010;DHT22;63564;46.840;18.336;2022-12-07T01:20:31;0.32;98.30
75010;DHT22;63564;46.840;18.336;2022-12-07T01:23:33;0.44;98.60
75010;DHT22;63564;46.840;18.336;2022-12-07T01:26:34;0.50;98.37
75010;DHT22;63564;46.840;18.336;2022-12-07T01:29:35;0.64;98.70
75010;DHT22;63564;46.840;18.336;2022-12-07T01:32:35;0.75;98.71
75010;DHT22;63564;46.840;18.336;2022-12-07T01:35:36;0.83;98.86
75010;DHT22;63564;46.840;18.336;2022-12-07T01:38:36;0.87;99.20
75010;DHT22;63564;46.840;18.336;2022-12-07T01:41:39;0.75;99.01
75010;DHT22;63564;46.840;18.336;2022-12-07T01:48:38;0.73;99.33
75010;DHT22;63564;46.840;18.336;2022-12-07T01:51:41;0.71;99.99
75010;DHT22;63564;46.840;18.336;2022-12-07T01:54:44;0.92;99.99
75010;DHT22;63564;46.840;18.336;2022-12-07T01:57:50;1.01;99.95
75010;DHT22;63564;46.840;18.336;2022-12-07T02:00:51;0.98;99.62
75010;DHT22;63564;46.840;18.336;2022-12-07T02:03:52;0.70;98.76
75010;DHT22;63564;46.840;18.336;2022-12-07T02:06:54;0.68;99.45
75010;DHT22;63564;46.840;18.336;2022-12-07T02:09:55;0.54;99.35
75010;DHT22;63564;46.840;18.336;2022-12-07T02:13:03;0.47;99.07
75010;DHT22;63564;46.840;18.336;2022-12-07T02:26:02;0.29;99.41
75010;DHT22;63564;46.840;18.336;2022-12-07T02:29:33;0.44;99.99
75010;DHT22;63564;46.840;18.336;2022-12-07T02:36:15;0.35;99.58
75010;DHT22;63564;46.840;18.336;2022-12-07T02:39:20;0.16;99.99
75010;DHT22;63564;46.840;18.336;2022-12-07T02:42:28;0.09;99.99
75010;DHT22;63564;46.840;18.336;2022-12-07T02:45:32;0.12;99.62
75010;DHT22;63564;46.840;18.336;2022-12-07T02:48:34;0.19;99.87
75010;DHT22;63564;46.840;18.336;2022-12-07T02:51:40;0.40;99.94
75010;DHT22;63564;46.840;18.336;2022-12-07T02:54:41;0.46;99.90
75010;DHT22;63564;46.840;18.336;2022-12-07T03:01:00;0.30;99.52
75010;DHT22;63564;46.840;18.336;2022-12-07T03:04:18;0.53;99.72
75010;DHT22;63564;46.840;18.336;2022-12-07T03:14:10;0.67;99.51
75010;DHT22;63564;46.840;18.336;2022-12-07T03:17:15;0.53;99.26
75010;DHT22;63564;46.840;18.336;2022-12-07T03:20:20;0.61;99.12
75010;DHT22;63564;46.840;18.336;2022-12-07T03:23:23;0.64;98.81
75010;DHT22;63564;46.840;18.336;2022-12-07T03:26:37;0.78;99.49
75010;DHT22;63564;46.840;18.336;2022-12-07T03:29:50;0.85;99.89
75010;DHT22;63564;46.840;18.336;2022-12-07T03:33:10;0.83;99.69
75010;DHT22;63564;46.840;18.336;2022-12-07T03:39:26;1.18;99.99
75010;DHT22;63564;46.840;18.336;2022-12-07T03:42:30;1.16;99.99
75010;DHT22;63564;46.840;18.336;2022-12-07T03:45:42;1.03;99.29
75010;DHT22;63564;46.840;18.336;2022-12-07T03:48:58;1.05;99.11
75010;DHT22;63564;46.840;18.336;2022-12-07T03:52:24;1.23;99.79
75010;DHT22;63564;46.840;18.336;2022-12-07T03:55:31;0.94;97.08
75010;DHT22;63564;46.840;18.336;2022-12-07T03:58:33;0.78;97.53
75010;DHT22;63564;46.840;18.336;2022-12-07T04:01:34;1.11;99.57
75010;DHT22;63564;46.840;18.336;2022-12-07T04:04:34;1.21;99.61
75010;DHT22;63564;46.840;18.336;2022-12-07T04:07:35;1.23;99.75
75010;DHT22;63564;46.840;18.336;2022-12-07T04:10:35;0.89;96.53
75010;DHT22;63564;46.840;18.336;2022-12-07T04:13:36;0.65;97.02
75010;DHT22;63564;46.840;18.336;2022-12-07T04:16:58;0.60;98.09
75010;DHT22;63564;46.840;18.336;2022-12-07T04:19:58;0.60;98.17
75010;DHT22;63564;46.840;18.336;2022-12-07T04:22:59;0.40;96.58
75010;DHT22;63564;46.840;18.336;2022-12-07T04:25:59;0.49;97.90
75010;DHT22;63564;46.840;18.336;2022-12-07T04:28:59;0.42;98.59
75010;DHT22;63564;46.840;18.336;2022-12-07T04:32:00;0.49;99.37
75010;DHT22;63564;46.840;18.336;2022-12-07T04:35:00;0.61;99.37
75010;DHT22;63564;46.840;18.336;2022-12-07T04:38:00;0.60;97.83
75010;DHT22;63564;46.840;18.336;2022-12-07T04:41:08;0.63;97.83
75010;DHT22;63564;46.840;18.336;2022-12-07T04:44:13;0.56;98.74
75010;DHT22;63564;46.840;18.336;2022-12-07T04:47:14;0.57;99.03
75010;DHT22;63564;46.840;18.336;2022-12-07T04:50:15;0.74;98.07
75010;DHT22;63564;46.840;18.336;2022-12-07T04:53:15;0.78;97.50
75010;DHT22;63564;46.840;18.336;2022-12-07T04:56:16;0.85;97.38
75010;DHT22;63564;46.840;18.336;2022-12-07T04:59:17;0.54;98.90
75010;DHT22;63564;46.840;18.336;2022-12-07T05:02:17;0.53;99.43
75010;DHT22;63564;46.840;18.336;2022-12-07T05:05:18;0.54;99.50
75010;DHT22;63564;46.840;18.336;2022-12-07T05:08:18;0.56;99.23
75010;DHT22;63564;46.840;18.336;2022-12-07T05:11:19;0.71;98.44
75010;DHT22;63564;46.840;18.336;2022-12-07T05:14:37;0.91;97.55
75010;DHT22;63564;46.840;18.336;2022-12-07T05:17:38;0.95;97.30
75010;DHT22;63564;46.840;18.336;2022-12-07T05:20:39;1.06;97.18
75010;DHT22;63564;46.840;18.336;2022-12-07T05:23:39;0.75;98.53
75010;DHT22;63564;46.840;18.336;2022-12-07T05:26:40;0.92;98.21
75010;DHT22;63564;46.840;18.336;2022-12-07T05:29:40;0.98;98.03
75010;DHT22;63564;46.840;18.336;2022-12-07T05:32:41;0.96;98.74
75010;DHT22;63564;46.840;18.336;2022-12-07T05:35:41;0.96;98.88
75010;DHT22;63564;46.840;18.336;2022-12-07T05:38:42;1.01;98.73
75010;DHT22;63564;46.840;18.336;2022-12-07T05:41:42;1.09;98.55
75010;DHT22;63564;46.840;18.336;2022-12-07T05:45:01;1.25;98.31
75010;DHT22;63564;46.840;18.336;2022-12-07T05:48:02;1.51;97.58
75010;DHT22;63564;46.840;18.336;2022-12-07T05:51:02;1.82;97.00
75010;DHT22;63564;46.840;18.336;2022-12-07T05:54:03;1.99;96.64
75010;DHT22;63564;46.840;18.336;2022-12-07T05:57:03;1.93;98.14
75010;DHT22;63564;46.840;18.336;2022-12-07T06:00:04;1.99;98.53
75010;DHT22;63564;46.840;18.336;2022-12-07T06:03:05;1.60;98.54
75010;DHT22;63564;46.840;18.336;2022-12-07T06:06:05;1.81;99.18
75010;DHT22;63564;46.840;18.336;2022-12-07T06:09:06;1.97;99.35
75010;DHT22;63564;46.840;18.336;2022-12-07T06:12:12;1.85;99.46
75010;DHT22;63564;46.840;18.336;2022-12-07T06:15:31;2.08;99.18
75010;DHT22;63564;46.840;18.336;2022-12-07T06:18:32;2.09;98.35
75010;DHT22;63564;46.840;18.336;2022-12-07T06:21:32;2.02;97.59
75010;DHT22;63564;46.840;18.336;2022-12-07T06:24:33;1.87;97.59
75010;DHT22;63564;46.840;18.336;2022-12-07T06:27:33;1.78;98.01
75010;DHT22;63564;46.840;18.336;2022-12-07T06:30:35;1.87;98.41
75010;DHT22;63564;46.840;18.336;2022-12-07T06:33:35;1.68;97.75
75010;DHT22;63564;46.840;18.336;2022-12-07T06:36:36;1.57;97.58
75010;DHT22;63564;46.840;18.336;2022-12-07T06:39:37;1.49;97.08
75010;DHT22;63564;46.840;18.336;2022-12-07T06:42:38;1.28;97.96
75010;DHT22;63564;46.840;18.336;2022-12-07T06:45:38;1.33;98.14
75010;DHT22;63564;46.840;18.336;2022-12-07T06:48:41;1.21;97.91
75010;DHT22;63564;46.840;18.336;2022-12-07T06:51:41;1.06;98.45
75010;DHT22;63564;46.840;18.336;2022-12-07T06:54:42;1.36;98.77
75010;DHT22;63564;46.840;18.336;2022-12-07T06:57:42;1.16;98.90
75010;DHT22;63564;46.840;18.336;2022-12-07T07:00:43;1.39;99.99
75010;DHT22;63564;46.840;18.336;2022-12-07T07:03:45;1.63;99.67
75010;DHT22;63564;46.840;18.336;2022-12-07T07:06:45;1.80;98.64
75010;DHT22;63564;46.840;18.336;2022-12-07T07:09:47;1.84;97.79
75010;DHT22;63564;46.840;18.336;2022-12-07T07:12:47;1.98;97.74
75010;DHT22;63564;46.840;18.336;2022-12-07T07:15:48;2.02;97.04
75010;DHT22;63564;46.840;18.336;2022-12-07T07:18:48;1.99;96.74
75010;DHT22;63564;46.840;18.336;2022-12-07T07:21:48;2.08;96.42
75010;DHT22;63564;46.840;18.336;2022-12-07T07:24:49;2.29;96.33
75010;DHT22;63564;46.840;18.336;2022-12-07T07:27:49;2.33;96.13
75010;DHT22;63564;46.840;18.336;2022-12-07T07:30:49;2.39;95.92
75010;DHT22;63564;46.840;18.336;2022-12-07T07:33:50;2.35;96.65
75010;DHT22;63564;46.840;18.336;2022-12-07T07:36:50;2.58;96.47
75010;DHT22;63564;46.840;18.336;2022-12-07T07:39:52;2.42;95.83
75010;DHT22;63564;46.840;18.336;2022-12-07T07:42:53;2.50;96.79
75010;DHT22;63564;46.840;18.336;2022-12-07T07:45:54;2.52;96.27
75010;DHT22;63564;46.840;18.336;2022-12-07T07:48:54;2.54;97.01
75010;DHT22;63564;46.840;18.336;2022-12-07T07:51:54;2.63;96.78
75010;DHT22;63564;46.840;18.336;2022-12-07T07:54:55;2.91;97.15
75010;DHT22;63564;46.840;18.336;2022-12-07T07:57:55;3.01;96.58
75010;DHT22;63564;46.840;18.336;2022-12-07T08:00:56;3.18;96.35
75010;DHT22;63564;46.840;18.336;2022-12-07T08:03:56;3.22;94.68
75010;DHT22;63564;46.840;18.336;2022-12-07T08:06:57;3.38;95.51
75010;DHT22;63564;46.840;18.336;2022-12-07T08:09:57;3.55;96.43
75010;DHT22;63564;46.840;18.336;2022-12-07T08:12:58;3.71;94.95
75010;DHT22;63564;46.840;18.336;2022-12-07T08:16:10;3.78;94.90
75010;DHT22;63564;46.840;18.336;2022-12-07T08:19:11;3.87;94.75
75010;DHT22;63564;46.840;18.336;2022-12-07T08:22:12;3.94;94.47
75010;DHT22;63564;46.840;18.336;2022-12-07T08:25:12;3.93;96.07
75010;DHT22;63564;46.840;18.336;2022-12-07T08:28:12;3.78;94.98
75010;DHT22;63564;46.840;18.336;2022-12-07T08:31:16;4.15;94.93
75010;DHT22;63564;46.840;18.336;2022-12-07T08:34:17;4.15;95.32
75010;DHT22;63564;46.840;18.336;2022-12-07T08:37:17;4.01;93.42
75010;DHT22;63564;46.840;18.336;2022-12-07T08:40:17;3.76;94.22
75010;DHT22;63564;46.840;18.336;2022-12-07T08:43:19;4.19;93.78
75010;DHT22;63564;46.840;18.336;2022-12-07T08:46:40;4.35;92.94
75010;DHT22;63564;46.840;18.336;2022-12-07T08:49:44;4.52;92.66
75010;DHT22;63564;46.840;18.336;2022-12-07T08:52:49;4.81;91.73
75010;DHT22;63564;46.840;18.336;2022-12-07T08:55:51;4.60;93.21
75010;DHT22;63564;46.840;18.336;2022-12-07T08:58:52;4.42;93.77
75010;DHT22;63564;46.840;18.336;2022-12-07T09:01:52;4.62;93.80
75010;DHT22;63564;46.840;18.336;2022-12-07T09:04:52;4.50;94.87
75010;DHT22;63564;46.840;18.336;2022-12-07T09:07:56;4.59;95.07
75010;DHT22;63564;46.840;18.336;2022-12-07T09:10:58;4.42;93.38
75010;DHT22;63564;46.840;18.336;2022-12-07T09:13:58;4.52;94.00
75010;DHT22;63564;46.840;18.336;2022-12-07T09:17:06;4.90;94.12
75010;DHT22;63564;46.840;18.336;2022-12-07T09:20:07;5.07;92.83
75010;DHT22;63564;46.840;18.336;2022-12-07T09:23:07;5.22;92.65
75010;DHT22;63564;46.840;18.336;2022-12-07T09:26:08;5.08;92.79
75010;DHT22;63564;46.840;18.336;2022-12-07T09:29:08;5.12;93.94
75010;DHT22;63564;46.840;18.336;2022-12-07T09:32:09;4.93;92.66
75010;DHT22;63564;46.840;18.336;2022-12-07T09:35:09;5.12;93.05
75010;DHT22;63564;46.840;18.336;2022-12-07T09:38:09;5.04;90.46
75010;DHT22;63564;46.840;18.336;2022-12-07T09:41:10;5.02;91.57
75010;DHT22;63564;46.840;18.336;2022-12-07T09:44:13;5.07;91.72
75010;DHT22;63564;46.840;18.336;2022-12-07T09:47:14;5.18;91.54
75010;DHT22;63564;46.840;18.336;2022-12-07T09:50:17;5.40;90.35
75010;DHT22;63564;46.840;18.336;2022-12-07T09:53:39;5.34;91.24
75010;DHT22;63564;46.840;18.336;2022-12-07T09:56:39;5.27;90.15
75010;DHT22;63564;46.840;18.336;2022-12-07T09:59:41;5.38;89.64
75010;DHT22;63564;46.840;18.336;2022-12-07T10:03:04;5.43;91.56
75010;DHT22;63564;46.840;18.336;2022-12-07T10:06:05;5.40;91.49
75010;DHT22;63564;46.840;18.336;2022-12-07T10:09:10;5.58;90.41
75010;DHT22;63564;46.840;18.336;2022-12-07T10:12:11;5.38;90.21
75010;DHT22;63564;46.840;18.336;2022-12-07T10:15:12;5.31;91.34
75010;DHT22;63564;46.840;18.336;2022-12-07T10:18:34;5.55;90.60
75010;DHT22;63564;46.840;18.336;2022-12-07T10:21:38;5.87;90.09
75010;DHT22;63564;46.840;18.336;2022-12-07T10:24:42;5.87;90.40
75010;DHT22;63564;46.840;18.336;2022-12-07T10:27:43;5.89;89.38
75010;DHT22;63564;46.840;18.336;2022-12-07T10:34:00;5.74;89.90
75010;DHT22;63564;46.840;18.336;2022-12-07T10:40:36;5.89;90.06
75010;DHT22;63564;46.840;18.336;2022-12-07T10:43:36;5.77;91.11
75010;DHT22;63564;46.840;18.336;2022-12-07T11:08:57;6.59;91.59
75010;DHT22;63564;46.840;18.336;2022-12-07T11:13:07;6.83;91.78
75010;DHT22;63564;46.840;18.336;2022-12-07T11:22:20;7.01;87.23
75010;DHT22;63564;46.840;18.336;2022-12-07T11:38:07;7.91;92.32
75010;DHT22;63564;46.840;18.336;2022-12-07T11:41:09;7.90;85.14
75010;DHT22;63564;46.840;18.336;2022-12-07T11:44:36;7.72;85.18
75010;DHT22;63564;46.840;18.336;2022-12-07T11:47:47;7.69;87.76
75010;DHT22;63564;46.840;18.336;2022-12-07T11:50:52;8.21;89.25
75010;DHT22;63564;46.840;18.336;2022-12-07T11:54:00;8.30;82.78
75010;DHT22;63564;46.840;18.336;2022-12-07T11:57:04;8.30;82.99
75010;DHT22;63564;46.840;18.336;2022-12-07T12:00:15;8.15;83.61
75010;DHT22;63564;46.840;18.336;2022-12-07T12:03:23;8.27;84.70
75010;DHT22;63564;46.840;18.336;2022-12-07T12:06:30;8.20;83.89
75010;DHT22;63564;46.840;18.336;2022-12-07T12:09:35;8.20;84.58
75010;DHT22;63564;46.840;18.336;2022-12-07T12:12:45;8.06;80.75
75010;DHT22;63564;46.840;18.336;2022-12-07T12:22:43;8.01;79.48
75010;DHT22;63564;46.840;18.336;2022-12-07T12:25:59;7.83;82.13
75010;DHT22;63564;46.840;18.336;2022-12-07T12:29:23;8.61;79.23
75010;DHT22;63564;46.840;18.336;2022-12-07T12:32:34;8.08;77.13
75010;DHT22;63564;46.840;18.336;2022-12-07T12:35:37;8.38;82.26
75010;DHT22;63564;46.840;18.336;2022-12-07T12:42:17;9.13;80.59
75010;DHT22;63564;46.840;18.336;2022-12-07T12:45:36;8.63;76.35
75010;DHT22;63564;46.840;18.336;2022-12-07T12:48:37;9.00;72.77
75010;DHT22;63564;46.840;18.336;2022-12-07T12:51:39;8.84;72.53
75010;DHT22;63564;46.840;18.336;2022-12-07T13:04:38;8.76;72.54
75010;DHT22;63564;46.840;18.336;2022-12-07T13:10:47;8.08;74.00
75010;DHT22;63564;46.840;18.336;2022-12-07T13:13:47;8.28;75.37
75010;DHT22;63564;46.840;18.336;2022-12-07T13:16:48;8.14;77.97
75010;DHT22;63564;46.840;18.336;2022-12-07T13:19:54;8.03;73.20
75010;DHT22;63564;46.840;18.336;2022-12-07T13:22:58;7.98;74.13
75010;DHT22;63564;46.840;18.336;2022-12-07T13:29:15;7.87;75.72
75010;DHT22;63564;46.840;18.336;2022-12-07T13:32:42;7.55;75.50
75010;DHT22;63564;46.840;18.336;2022-12-07T13:35:43;7.59;74.53
75010;DHT22;63564;46.840;18.336;2022-12-07T13:38:50;7.56;73.47
75010;DHT22;63564;46.840;18.336;2022-12-07T13:41:56;7.39;75.53
75010;DHT22;63564;46.840;18.336;2022-12-07T13:45:22;7.35;77.71
75010;DHT22;63564;46.840;18.336;2022-12-07T13:48:47;7.59;76.46
75010;DHT22;63564;46.840;18.336;2022-12-07T13:51:48;7.22;79.39
75010;DHT22;63564;46.840;18.336;2022-12-07T13:54:56;7.36;77.68
75010;DHT22;63564;46.840;18.336;2022-12-07T13:57:57;7.27;77.60
75010;DHT22;63564;46.840;18.336;2022-12-07T14:00:57;7.14;79.26
75010;DHT22;63564;46.840;18.336;2022-12-07T14:07:27;6.84;79.91
75010;DHT22;63564;46.840;18.336;2022-12-07T14:10:33;6.59;81.52
75010;DHT22;63564;46.840;18.336;2022-12-07T14:13:36;6.82;80.11
75010;DHT22;63564;46.840;18.336;2022-12-07T14:16:41;6.68;80.69
75010;DHT22;63564;46.840;18.336;2022-12-07T14:19:57;6.49;81.23
75010;DHT22;63564;46.840;18.336;2022-12-07T14:22:59;6.29;81.93
75010;DHT22;63564;46.840;18.336;2022-12-07T14:26:19;6.04;84.13
75010;DHT22;63564;46.840;18.336;2022-12-07T14:32:29;6.31;81.27
75010;DHT22;63564;46.840;18.336;2022-12-07T14:35:31;6.38;81.00
75010;DHT22;63564;46.840;18.336;2022-12-07T14:38:32;6.22;80.96
75010;DHT22;63564;46.840;18.336;2022-12-07T14:41:32;6.00;81.49
75010;DHT22;63564;46.840;18.336;2022-12-07T14:44:51;6.06;81.63
75010;DHT22;63564;46.840;18.336;2022-12-07T14:47:51;6.03;81.37
75010;DHT22;63564;46.840;18.336;2022-12-07T14:50:52;5.94;81.68
75010;DHT22;63564;46.840;18.336;2022-12-07T14:53:53;5.86;81.98
75010;DHT22;63564;46.840;18.336;2022-12-07T14:56:53;5.79;82.22
75010;DHT22;63564;46.840;18.336;2022-12-07T14:59:54;5.66;82.49
75010;DHT22;63564;46.840;18.336;2022-12-07T15:02:55;5.60;83.07
75010;DHT22;63564;46.840;18.336;2022-12-07T15:05:55;5.55;82.74
75010;DHT22;63564;46.840;18.336;2022-12-07T15:08:56;5.48;82.84
75010;DHT22;63564;46.840;18.336;2022-12-07T15:11:56;5.40;83.21
75010;DHT22;63564;46.840;18.336;2022-12-07T15:14:56;5.25;84.03
75010;DHT22;63564;46.840;18.336;2022-12-07T15:17:57;5.27;84.29
75010;DHT22;63564;46.840;18.336;2022-12-07T15:20:57;5.18;84.37
75010;DHT22;63564;46.840;18.336;2022-12-07T15:23:57;5.24;84.65
75010;DHT22;63564;46.840;18.336;2022-12-07T15:26:58;5.25;84.17
75010;DHT22;63564;46.840;18.336;2022-12-07T15:29:59;5.21;84.42
75010;DHT22;63564;46.840;18.336;2022-12-07T15:32:59;5.20;84.00
75010;DHT22;63564;46.840;18.336;2022-12-07T15:36:00;5.25;84.20
75010;DHT22;63564;46.840;18.336;2022-12-07T15:39:00;5.18;84.18
75010;DHT22;63564;46.840;18.336;2022-12-07T15:42:01;4.98;85.47
75010;DHT22;63564;46.840;18.336;2022-12-07T15:45:01;4.88;85.60
75010;DHT22;63564;46.840;18.336;2022-12-07T15:48:04;4.93;85.09
75010;DHT22;63564;46.840;18.336;2022-12-07T15:51:08;5.01;84.95
75010;DHT22;63564;46.840;18.336;2022-12-07T15:54:28;5.14;84.45
75010;DHT22;63564;46.840;18.336;2022-12-07T15:57:30;5.25;84.60
75010;DHT22;63564;46.840;18.336;2022-12-07T16:00:30;5.39;83.72
75010;DHT22;63564;46.840;18.336;2022-12-07T16:03:30;5.32;84.44
75010;DHT22;63564;46.840;18.336;2022-12-07T16:06:31;5.38;83.54
75010;DHT22;63564;46.840;18.336;2022-12-07T16:09:31;5.49;83.35
75010;DHT22;63564;46.840;18.336;2022-12-07T16:12:32;5.48;83.66
75010;DHT22;63564;46.840;18.336;2022-12-07T16:15:32;5.46;84.69
75010;DHT22;63564;46.840;18.336;2022-12-07T16:18:33;5.49;86.59
75010;DHT22;63564;46.840;18.336;2022-12-07T16:21:34;5.18;88.42
75010;DHT22;63564;46.840;18.336;2022-12-07T16:24:35;4.98;87.98
75010;DHT22;63564;46.840;18.336;2022-12-07T16:27:36;4.83;88.76
75010;DHT22;63564;46.840;18.336;2022-12-07T16:30:36;4.87;87.11
75010;DHT22;63564;46.840;18.336;2022-12-07T16:33:38;4.88;86.78
75010;DHT22;63564;46.840;18.336;2022-12-07T16:36:39;4.98;86.46
75010;DHT22;63564;46.840;18.336;2022-12-07T16:39:39;4.95;87.29
75010;DHT22;63564;46.840;18.336;2022-12-07T16:42:39;4.64;89.91
75010;DHT22;63564;46.840;18.336;2022-12-07T16:45:40;4.45;89.95
75010;DHT22;63564;46.840;18.336;2022-12-07T16:48:41;4.28;91.25
75010;DHT22;63564;46.840;18.336;2022-12-07T16:51:41;4.43;90.20
75010;DHT22;63564;46.840;18.336;2022-12-07T16:54:45;4.84;88.16
75010;DHT22;63564;46.840;18.336;2022-12-07T16:57:45;4.87;88.33
75010;DHT22;63564;46.840;18.336;2022-12-07T17:00:46;4.64;88.63
75010;DHT22;63564;46.840;18.336;2022-12-07T17:03:46;4.67;89.52
75010;DHT22;63564;46.840;18.336;2022-12-07T17:06:47;4.66;89.27
75010;DHT22;63564;46.840;18.336;2022-12-07T17:09:47;4.38;91.32
75010;DHT22;63564;46.840;18.336;2022-12-07T17:12:48;4.28;91.64
75010;DHT22;63564;46.840;18.336;2022-12-07T17:16:01;4.28;91.19
75010;DHT22;63564;46.840;18.336;2022-12-07T17:19:06;4.26;90.83
75010;DHT22;63564;46.840;18.336;2022-12-07T17:22:06;4.29;90.93
75010;DHT22;63564;46.840;18.336;2022-12-07T17:25:07;4.56;89.95
75010;DHT22;63564;46.840;18.336;2022-12-07T17:28:07;4.67;88.83
75010;DHT22;63564;46.840;18.336;2022-12-07T17:31:10;4.62;88.93
75010;DHT22;63564;46.840;18.336;2022-12-07T17:34:12;4.56;90.31
75010;DHT22;63564;46.840;18.336;2022-12-07T17:37:12;4.45;91.00
75010;DHT22;63564;46.840;18.336;2022-12-07T17:40:14;4.42;91.56
75010;DHT22;63564;46.840;18.336;2022-12-07T17:43:15;4.38;92.10
75010;DHT22;63564;46.840;18.336;2022-12-07T17:46:15;4.53;91.62
75010;DHT22;63564;46.840;18.336;2022-12-07T17:49:16;4.49;92.46
75010;DHT22;63564;46.840;18.336;2022-12-07T17:52:16;4.48;92.69
75010;DHT22;63564;46.840;18.336;2022-12-07T17:55:35;4.38;93.64
75010;DHT22;63564;46.840;18.336;2022-12-07T17:58:36;4.15;94.08
75010;DHT22;63564;46.840;18.336;2022-12-07T18:01:38;3.98;94.45
75010;DHT22;63564;46.840;18.336;2022-12-07T18:04:38;4.05;94.15
75010;DHT22;63564;46.840;18.336;2022-12-07T18:07:41;3.94;94.75
75010;DHT22;63564;46.840;18.336;2022-12-07T18:10:41;3.94;94.97
75010;DHT22;63564;46.840;18.336;2022-12-07T18:13:42;3.98;94.60
75010;DHT22;63564;46.840;18.336;2022-12-07T18:16:43;3.91;94.81
75010;DHT22;63564;46.840;18.336;2022-12-07T18:19:44;3.95;95.55
75010;DHT22;63564;46.840;18.336;2022-12-07T18:22:45;3.86;95.72
75010;DHT22;63564;46.840;18.336;2022-12-07T18:25:49;3.84;95.91
75010;DHT22;63564;46.840;18.336;2022-12-07T18:28:51;3.74;95.77
75010;DHT22;63564;46.840;18.336;2022-12-07T18:31:51;3.70;96.52
75010;DHT22;63564;46.840;18.336;2022-12-07T18:34:52;3.63;96.75
75010;DHT22;63564;46.840;18.336;2022-12-07T18:37:53;3.69;97.05
75010;DHT22;63564;46.840;18.336;2022-12-07T18:40:54;3.58;97.21
75010;DHT22;63564;46.840;18.336;2022-12-07T18:43:54;3.66;97.12
75010;DHT22;63564;46.840;18.336;2022-12-07T18:46:55;3.59;96.89
75010;DHT22;63564;46.840;18.336;2022-12-07T18:49:56;3.42;96.80
75010;DHT22;63564;46.840;18.336;2022-12-07T18:52:57;3.43;96.83
75010;DHT22;63564;46.840;18.336;2022-12-07T18:56:09;3.36;96.29
75010;DHT22;63564;46.840;18.336;2022-12-07T18:59:12;3.35;97.20
75010;DHT22;63564;46.840;18.336;2022-12-07T19:02:32;3.21;97.36
75010;DHT22;63564;46.840;18.336;2022-12-07T19:05:32;3.09;97.26
75010;DHT22;63564;46.840;18.336;2022-12-07T19:08:33;3.02;97.61
75010;DHT22;63564;46.840;18.336;2022-12-07T19:11:36;3.02;98.20
75010;DHT22;63564;46.840;18.336;2022-12-07T19:14:50;2.94;97.34
75010;DHT22;63564;46.840;18.336;2022-12-07T19:17:51;2.73;97.48
75010;DHT22;63564;46.840;18.336;2022-12-07T19:20:52;2.63;96.90
75010;DHT22;63564;46.840;18.336;2022-12-07T19:23:52;2.54;97.09
75010;DHT22;63564;46.840;18.336;2022-12-07T19:26:55;2.39;97.07
75010;DHT22;63564;46.840;18.336;2022-12-07T19:29:56;2.19;97.29
75010;DHT22;63564;46.840;18.336;2022-12-07T19:32:56;2.24;97.87
75010;DHT22;63564;46.840;18.336;2022-12-07T19:35:57;2.09;97.43
75010;DHT22;63564;46.840;18.336;2022-12-07T19:38:58;1.89;97.46
75010;DHT22;63564;46.840;18.336;2022-12-07T19:42:01;2.08;98.34
75010;DHT22;63564;46.840;18.336;2022-12-07T19:45:02;2.14;98.09
75010;DHT22;63564;46.840;18.336;2022-12-07T19:48:04;2.29;98.12
75010;DHT22;63564;46.840;18.336;2022-12-07T19:51:05;2.12;97.43
75010;DHT22;63564;46.840;18.336;2022-12-07T19:54:06;2.14;98.22
75010;DHT22;63564;46.840;18.336;2022-12-07T19:57:07;2.18;98.61
75010;DHT22;63564;46.840;18.336;2022-12-07T20:00:12;2.30;98.06
75010;DHT22;63564;46.840;18.336;2022-12-07T20:03:13;2.39;98.33
75010;DHT22;63564;46.840;18.336;2022-12-07T20:06:17;2.24;97.84
75010;DHT22;63564;46.840;18.336;2022-12-07T20:09:19;2.08;97.96
75010;DHT22;63564;46.840;18.336;2022-12-07T20:12:20;2.02;97.78
75010;DHT22;63564;46.840;18.336;2022-12-07T20:15:39;1.89;97.83
75010;DHT22;63564;46.840;18.336;2022-12-07T20:18:39;1.81;97.38
75010;DHT22;63564;46.840;18.336;2022-12-07T20:21:42;1.73;96.87
75010;DHT22;63564;46.840;18.336;2022-12-07T20:24:44;1.77;97.51
75010;DHT22;63564;46.840;18.336;2022-12-07T20:27:45;1.78;97.73
75010;DHT22;63564;46.840;18.336;2022-12-07T20:30:50;1.84;98.13
75010;DHT22;63564;46.840;18.336;2022-12-07T20:33:51;1.93;98.01
75010;DHT22;63564;46.840;18.336;2022-12-07T20:36:53;1.85;97.14
75010;DHT22;63564;46.840;18.336;2022-12-07T20:39:54;1.89;97.35
75010;DHT22;63564;46.840;18.336;2022-12-07T20:42:55;1.87;97.18
75010;DHT22;63564;46.840;18.336;2022-12-07T20:45:56;1.85;96.31
75010;DHT22;63564;46.840;18.336;2022-12-07T20:48:58;1.77;96.77
75010;DHT22;63564;46.840;18.336;2022-12-07T20:52:00;1.87;96.96
75010;DHT22;63564;46.840;18.336;2022-12-07T20:55:01;1.97;97.57
75010;DHT22;63564;46.840;18.336;2022-12-07T20:58:01;1.95;97.54
75010;DHT22;63564;46.840;18.336;2022-12-07T21:01:02;1.75;97.57
75010;DHT22;63564;46.840;18.336;2022-12-07T21:04:03;1.70;97.96
75010;DHT22;63564;46.840;18.336;2022-12-07T21:07:03;1.81;97.74
75010;DHT22;63564;46.840;18.336;2022-12-07T21:10:05;1.89;97.65